createdAt,value
2023-11-29T00:15:09.701Z,24.80
2023-11-29T00:35:11.150Z,24.10
2023-11-29T00:55:16.758Z,18.30
2023-11-29T01:15:20.755Z,15.50
2023-11-29T01:35:22.153Z,13.30
2023-11-29T01:55:23.535Z,14.40
2023-11-29T02:15:24.965Z,17.40
2023-11-29T02:35:26.428Z,22.20
2023-11-29T02:55:28.043Z,15.00
2023-11-29T03:15:29.413Z,17.60
2023-11-29T03:35:31.052Z,16.00
2023-11-29T03:55:32.515Z,14.60
2023-11-29T04:15:34.122Z,14.50
2023-11-29T04:35:35.624Z,16.90
2023-11-29T04:55:37.129Z,16.40
2023-11-29T05:15:38.547Z,23.00
2023-11-29T05:35:40.149Z,14.20
2023-11-29T05:55:41.540Z,16.50
2023-11-29T06:15:43.049Z,19.70
2023-11-29T06:35:44.486Z,11.90
2023-11-29T06:55:46.174Z,15.60
2023-11-29T07:15:47.709Z,15.80
2023-11-29T07:35:49.168Z,14.00
2023-11-29T07:55:50.633Z,13.90
2023-11-29T08:15:51.996Z,11.20
2023-11-29T08:35:53.566Z,13.00
2023-11-29T08:55:55.031Z,13.80
2023-11-29T09:15:56.532Z,16.70
2023-11-29T09:35:58.185Z,17.60
2023-11-29T09:55:59.773Z,15.30
2023-11-29T10:16:01.353Z,13.80
2023-11-29T10:36:02.884Z,12.10
2023-11-29T10:56:04.353Z,12.50
2023-11-29T11:16:05.964Z,17.10
2023-11-29T11:36:07.354Z,13.30
2023-11-29T11:56:08.736Z,10.70
2023-11-29T12:16:10.174Z,8.40
2023-11-29T12:36:12.086Z,8.90
2023-11-29T12:56:13.977Z,17.10
2023-11-29T13:16:15.643Z,19.50
2023-11-29T13:36:17.508Z,17.20
2023-11-29T13:56:19.192Z,18.70
2023-11-29T14:16:20.792Z,19.30
2023-11-29T14:36:22.452Z,18.60
2023-11-29T14:56:29.107Z,20.00
2023-11-29T15:16:31.319Z,12.60
2023-11-29T15:36:32.918Z,10.80
2023-11-29T15:56:34.788Z,11.20
2023-11-29T16:16:36.358Z,15.30
2023-11-29T16:36:37.904Z,15.70
2023-11-29T16:56:39.405Z,16.00
2023-11-29T17:16:42.644Z,14.70
2023-11-29T17:36:44.407Z,14.30
2023-11-29T17:56:45.989Z,14.30
2023-11-29T18:16:47.456Z,19.00
2023-11-29T18:36:48.916Z,17.80
2023-11-29T18:56:50.720Z,21.00
2023-11-29T19:16:52.265Z,19.70
2023-11-29T19:36:53.827Z,22.60
2023-11-29T19:56:55.297Z,21.00
2023-11-29T20:16:56.765Z,25.60
2023-11-29T20:36:58.340Z,31.70
2023-11-29T20:56:59.773Z,39.80
2023-11-29T21:17:01.166Z,28.20
2023-11-29T21:37:02.786Z,33.00
2023-11-29T21:57:04.267Z,35.40
2023-11-29T22:17:05.845Z,27.00
2023-11-29T22:37:07.237Z,29.70
2023-11-29T22:57:08.620Z,34.50
2023-11-29T23:17:10.446Z,32.20
2023-11-29T23:37:12.000Z,26.10
2023-11-29T23:57:13.470Z,22.90
